Time;durP1;ratioP1;P1;durP2;ratioP2;P2;SDS_P1;SDS_P2;PMS_P1;PMS_P2;Temp;Humidity;BMP_temperature;BMP_pressure;BME280_temperature;BME280_humidity;BME280_pressure;Samples;Min_cycle;Max_cycle;Signal;HPM_P1;HPM_P2
2023/12/25 00:01:24;;;;;;;0.20;0.20;;;;;;;12.39;81.81;75127.97;6243535;23;20006;-87
2023/12/25 00:04:07;;;;;;;0.20;0.20;;;;;;;12.55;82.20;75152.06;6214871;23;20009;-87
2023/12/25 00:06:33;;;;;;;0.20;0.20;;;;;;;12.46;81.44;75136.34;6193191;23;20028;-88
2023/12/25 00:09:00;;;;;;;0.20;0.20;;;;;;;12.73;81.15;75173.00;6239504;23;20000;-88
2023/12/25 00:11:28;;;;;;;0.20;0.20;;;;;;;12.43;81.76;75132.78;6213700;23;20019;-87
2023/12/25 00:17:41;;;;;;;0.20;0.20;;;;;;;12.85;82.47;75181.81;6240504;23;20043;-88
2023/12/25 00:20:34;;;;;;;0.20;0.20;;;;;;;12.45;83.30;75137.34;6182664;23;20016;-87
2023/12/25 00:23:04;;;;;;;0.20;0.20;;;;;;;12.68;83.98;75159.31;6177668;23;20002;-88
2023/12/25 00:25:57;;;;;;;0.20;0.20;;;;;;;12.90;84.39;75187.81;6183784;23;20014;-86
2023/12/25 00:28:25;;;;;;;0.20;0.20;;;;;;;12.78;85.16;75174.06;6173059;23;20056;-86
2023/12/25 00:31:14;;;;;;;0.20;0.20;;;;;;;12.88;85.67;75190.34;6153614;23;20049;-88
2023/12/25 00:33:42;;;;;;;0.20;0.20;;;;;;;12.73;86.96;75173.00;6156949;23;20025;-88
2023/12/25 00:36:11;;;;;;;0.20;0.20;;;;;;;12.51;87.37;75147.88;6180941;23;20093;-87
2023/12/25 00:38:52;;;;;;;0.20;0.20;;;;;;;12.76;88.39;75168.88;6152081;23;20016;-87
2023/12/25 00:41:17;;;;;;;0.20;0.20;;;;;;;12.49;88.41;75145.50;6206199;23;19997;-86
2023/12/25 00:43:47;;;;;;;0.20;0.20;;;;;;;12.44;88.95;75136.75;6206055;23;20000;-87
2023/12/25 00:46:31;;;;;;;0.20;0.20;;;;;;;12.44;89.01;75139.50;6206914;23;19995;-87
2023/12/25 00:49:01;;;;;;;0.20;0.20;;;;;;;12.81;89.60;75174.25;6208789;23;19997;-88
2023/12/25 00:54:53;;;;;;;0.30;0.30;;;;;;;12.85;88.95;75181.81;6212742;23;20144;-89
2023/12/25 00:57:21;;;;;;;0.20;0.20;;;;;;;12.90;86.90;75185.03;6184831;23;20096;-88
2023/12/25 01:03:03;;;;;;;0.20;0.20;;;;;;;12.78;81.74;75176.84;6226375;23;20024;-88
2023/12/25 01:05:54;;;;;;;0.20;0.20;;;;;;;12.67;81.46;75163.06;6240652;23;20013;-88
2023/12/25 01:08:21;;;;;;;0.20;0.20;;;;;;;12.76;81.73;75173.81;6191030;23;20052;-86
2023/12/25 01:11:00;;;;;;;0.20;0.20;;;;;;;12.77;82.21;75169.47;6187249;23;20013;-87
2023/12/25 01:14:06;;;;;;;0.20;0.20;;;;;;;12.77;82.81;75175.03;6215891;23;20035;-89
2023/12/25 01:16:37;;;;;;;0.20;0.20;;;;;;;12.49;83.66;75139.94;6218616;23;20009;-88
2023/12/25 01:19:26;;;;;;;0.30;0.30;;;;;;;12.75;85.54;75170.47;6218044;23;20039;-88
2023/12/25 01:22:32;;;;;;;0.20;0.20;;;;;;;12.77;86.98;75175.03;6236210;23;20011;-88
2023/12/25 01:24:59;;;;;;;0.20;0.20;;;;;;;12.38;89.33;75131.75;6212800;23;19996;-88
2023/12/25 01:28:23;;;;;;;0.20;0.20;;;;;;;12.64;90.17;75157.28;6239936;23;20039;-87
2023/12/25 01:31:08;;;;;;;0.20;0.20;;;;;;;12.22;92.96;75107.66;6239504;23;20059;-89
2023/12/25 01:33:53;;;;;;;0.20;0.20;;;;;;;12.73;91.54;75170.22;6207659;23;20013;-88
2023/12/25 01:36:41;;;;;;;0.20;0.20;;;;;;;12.52;92.04;75140.78;6213742;23;20004;-88
2023/12/25 01:39:18;;;;;;;0.20;0.20;;;;;;;12.26;92.35;75115.22;6189186;23;19992;-88
2023/12/25 01:41:54;;;;;;;0.20;0.20;;;;;;;12.62;93.83;75157.06;6237967;23;20064;-88
2023/12/25 01:44:28;;;;;;;0.20;0.20;;;;;;;12.34;95.82;75122.00;6239830;23;19995;-88
2023/12/25 01:50:02;;;;;;;0.20;0.20;;;;;;;12.49;98.66;75142.72;6234979;22;20069;-86
2023/12/25 01:52:57;;;;;;;0.20;0.20;;;;;;;12.23;99.23;75111.63;6214729;23;19996;-89
2023/12/25 01:55:42;;;;;;;0.20;0.20;;;;;;;12.41;99.42;75130.38;6243247;23;20031;-88
2023/12/25 01:59:02;;;;;;;0.20;0.20;;;;;;;12.47;98.45;75137.56;6180161;23;20014;-88
2023/12/25 02:10:48;;;;;;;0.20;0.20;;;;;;;12.39;95.47;75127.38;6161979;23;20032;-88
2023/12/25 02:13:19;;;;;;;0.28;0.28;;;;;;;12.46;93.81;75138.53;6169501;23;20024;-88
2023/12/25 02:15:47;;;;;;;0.20;0.20;;;;;;;12.15;92.66;75102.06;6195278;23;20009;-88
2023/12/25 02:18:15;;;;;;;0.20;0.20;;;;;;;12.54;91.86;75151.47;6210457;23;20016;-87
2023/12/25 02:23:34;;;;;;;0.30;0.30;;;;;;;12.21;92.47;75107.06;6236704;22;20021;-88
2023/12/25 02:26:07;;;;;;;0.20;0.20;;;;;;;12.47;91.99;75139.75;6213073;23;20016;-87
2023/12/25 02:28:36;;;;;;;0.20;0.20;;;;;;;12.22;89.89;75110.44;6241092;23;20048;-88
2023/12/25 02:31:10;;;;;;;0.20;0.20;;;;;;;12.23;88.83;75108.84;6238094;23;20004;-87
2023/12/25 02:33:37;;;;;;;0.20;0.20;;;;;;;12.29;87.14;75119.38;6231606;23;20004;-87
2023/12/25 02:36:49;;;;;;;0.30;0.30;;;;;;;12.50;87.06;75146.69;6213443;23;19985;-88
2023/12/25 02:39:39;;;;;;;0.20;0.20;;;;;;;12.46;86.77;75135.75;6240276;23;20024;-88
2023/12/25 02:42:11;;;;;;;0.20;0.20;;;;;;;12.56;84.23;75150.50;6239418;23;20016;-88
2023/12/25 02:45:18;;;;;;;0.20;0.20;;;;;;;12.53;84.93;75141.97;6239275;23;20016;-88
2023/12/25 02:47:53;;;;;;;0.20;0.20;;;;;;;12.26;85.40;75113.03;6213253;23;20035;-88
2023/12/25 02:50:20;;;;;;;0.20;0.20;;;;;;;12.62;84.44;75159.84;6239712;23;20009;-88
2023/12/25 02:52:46;;;;;;;0.20;0.20;;;;;;;12.57;84.02;75149.53;6230737;23;20047;-87
2023/12/25 02:55:22;;;;;;;0.20;0.20;;;;;;;12.48;83.98;75138.75;6240366;23;20007;-88
2023/12/25 02:58:08;;;;;;;0.30;0.30;;;;;;;12.22;84.79;75108.25;6214326;23;20000;-88
2023/12/25 03:00:38;;;;;;;0.20;0.20;;;;;;;12.29;85.37;75116.03;6204977;23;20079;-87
2023/12/25 03:04:00;;;;;;;0.30;0.30;;;;;;;12.44;86.49;75136.75;6238638;23;20000;-88
2023/12/25 03:06:32;;;;;;;0.30;0.30;;;;;;;12.41;86.06;75132.53;6242998;23;19997;-88
2023/12/25 03:08:58;;;;;;;0.30;0.30;;;;;;;12.32;86.25;75125.16;6240165;23;20035;-87
2023/12/25 03:11:24;;;;;;;0.20;0.20;;;;;;;12.26;86.27;75113.03;6215121;23;20015;-88
2023/12/25 03:13:50;;;;;;;0.20;0.20;;;;;;;12.19;87.09;75109.59;6242717;23;20020;-88
2023/12/25 03:16:24;;;;;;;0.20;0.20;;;;;;;12.29;88.08;75119.38;6231853;23;19995;-87
2023/12/25 03:18:58;;;;;;;0.20;0.20;;;;;;;12.02;88.91;75087.69;6209802;23;20016;-87
2023/12/25 03:21:24;;;;;;;0.20;0.20;;;;;;;12.13;89.94;75099.66;6225989;23;20133;-86
2023/12/25 03:23:56;;;;;;;0.20;0.20;;;;;;;12.11;89.58;75094.50;6236820;23;20009;-88
2023/12/25 03:26:36;;;;;;;0.20;0.20;;;;;;;12.24;89.73;75110.03;6238281;23;20004;-88
2023/12/25 03:29:16;;;;;;;0.20;0.20;;;;;;;12.14;90.11;75100.84;6213645;23;20027;-88
2023/12/25 03:31:55;;;;;;;0.20;0.20;;;;;;;11.96;90.12;75083.28;6213052;23;20000;-89
2023/12/25 03:34:34;;;;;;;0.20;0.20;;;;;;;12.01;90.33;75086.50;6239997;23;20064;-88
2023/12/25 03:37:02;;;;;;;0.30;0.30;;;;;;;11.88;91.17;75070.97;6214394;23;20088;-86
2023/12/25 03:39:29;;;;;;;0.20;0.20;;;;;;;11.94;91.99;75074.78;6239282;23;20005;-89
2023/12/25 03:41:58;;;;;;;0.20;0.20;;;;;;;11.79;92.11;75062.94;6216842;23;20005;-88
2023/12/25 03:44:24;;;;;;;0.20;0.20;;;;;;;11.83;91.34;75067.75;6240690;23;19986;-87
2023/12/25 03:47:04;;;;;;;0.20;0.20;;;;;;;11.82;90.75;75069.31;6241941;23;19995;-88
2023/12/25 03:49:31;;;;;;;0.20;0.20;;;;;;;11.86;91.40;75065.78;6220218;23;20002;-88
2023/12/25 03:52:56;;;;;;;0.20;0.20;;;;;;;11.82;91.38;75066.53;6241646;23;20009;-88
2023/12/25 03:55:28;;;;;;;0.30;0.30;;;;;;;12.09;91.35;75092.09;6218640;23;20012;-88
2023/12/25 03:57:58;;;;;;;0.20;0.20;;;;;;;11.95;91.82;75081.50;6242284;23;20032;-88
2023/12/25 04:01:04;;;;;;;0.28;0.28;;;;;;;11.93;92.88;75076.94;6240169;23;20008;-88
2023/12/25 04:06:28;;;;;;;0.20;0.20;;;;;;;11.95;92.15;75076.56;6234618;22;20020;-88
2023/12/25 04:09:01;;;;;;;0.20;0.20;;;;;;;11.95;92.60;75075.97;6189812;23;20024;-88
2023/12/25 04:11:30;;;;;;;0.20;0.20;;;;;;;11.96;93.07;75083.28;6239979;23;20012;-89
2023/12/25 04:17:28;;;;;;;0.20;0.20;;;;;;;11.97;92.50;75083.91;6244927;23;20002;-88
2023/12/25 04:20:02;;;;;;;0.20;0.20;;;;;;;12.00;92.67;75085.31;6207115;23;20134;-87
2023/12/25 04:22:30;;;;;;;0.20;0.20;;;;;;;11.82;92.99;75066.53;6210920;23;20013;-89
2023/12/25 04:24:56;;;;;;;0.20;0.20;;;;;;;11.67;92.66;75048.59;6213834;23;20000;-88
2023/12/25 04:27:43;;;;;;;0.20;0.20;;;;;;;11.96;92.20;75077.16;6184528;23;20016;-88
2023/12/25 04:37:07;;;;;;;0.20;0.20;;;;;;;11.67;92.28;75049.19;6138152;23;20020;-86
2023/12/25 04:39:34;;;;;;;0.30;0.30;;;;;;;11.77;93.29;75061.16;6210276;23;20009;-88
2023/12/25 04:42:02;;;;;;;0.20;0.20;;;;;;;11.51;93.69;75027.91;6184003;23;20028;-88
2023/12/25 04:44:27;;;;;;;0.20;0.20;;;;;;;11.73;94.06;75050.25;6182965;23;20012;-87
2023/12/25 04:49:27;;;;;;;0.30;0.30;;;;;;;11.78;95.15;75059.00;6110254;23;20081;-87
2023/12/25 04:52:29;;;;;;;0.20;0.20;;;;;;;11.88;94.48;75070.97;6096754;23;20012;-88
2023/12/25 04:54:55;;;;;;;0.20;0.20;;;;;;;11.55;94.77;75029.91;6097403;23;20006;-87
2023/12/25 04:57:27;;;;;;;0.20;0.20;;;;;;;11.82;95.01;75061.00;6095340;23;20014;-87
2023/12/25 04:59:55;;;;;;;0.20;0.20;;;;;;;11.70;94.62;75046.63;6120288;23;20014;-88
2023/12/25 05:02:31;;;;;;;0.20;0.20;;;;;;;11.77;95.56;75055.00;6111160;23;20066;-88
2023/12/25 05:05:18;;;;;;;0.20;0.20;;;;;;;11.66;95.92;75041.84;6120900;23;20033;-88
2023/12/25 05:07:54;;;;;;;0.20;0.20;;;;;;;11.69;95.51;75045.44;6096077;23;20011;-88
2023/12/25 05:10:25;;;;;;;0.20;0.20;;;;;;;11.87;95.98;75069.16;6094898;23;20002;-88
2023/12/25 05:16:08;;;;;;;0.20;0.20;;;;;;;11.71;93.97;75053.38;6117614;23;19916;-87
2023/12/25 05:18:34;;;;;;;0.20;0.20;;;;;;;11.75;87.39;75052.63;6115723;23;20003;-88
2023/12/25 05:21:01;;;;;;;0.20;0.20;;;;;;;12.06;86.26;75095.25;6136869;23;20012;-88
2023/12/25 05:23:31;;;;;;;0.20;0.20;;;;;;;12.01;85.09;75085.91;6119933;23;20427;-88
2023/12/25 05:29:27;;;;;;;0.20;0.20;;;;;;;12.12;90.96;75096.28;6148703;23;19916;-87
2023/12/25 05:31:55;;;;;;;0.20;0.20;;;;;;;11.83;92.24;75061.63;6121157;23;20014;-87
2023/12/25 05:34:21;;;;;;;0.30;0.30;;;;;;;11.84;94.18;75068.94;6148197;23;19992;-88
2023/12/25 05:36:47;;;;;;;0.20;0.20;;;;;;;11.84;94.61;75063.41;6146542;23;19994;-87
2023/12/25 05:39:20;;;;;;;0.30;0.30;;;;;;;11.72;95.19;75055.19;6151800;23;20013;-87
2023/12/25 05:41:50;;;;;;;0.20;0.20;;;;;;;12.00;95.29;75088.09;6148708;23;20001;-88
2023/12/25 05:44:17;;;;;;;0.20;0.20;;;;;;;11.99;95.68;75086.28;6121455;23;20002;-88
2023/12/25 05:46:46;;;;;;;0.20;0.20;;;;;;;11.73;95.82;75055.78;6146229;23;20054;-88
2023/12/25 05:49:17;;;;;;;0.20;0.20;;;;;;;11.61;96.95;75041.41;6121849;23;20021;-88
2023/12/25 05:51:47;;;;;;;0.20;0.20;;;;;;;11.95;96.99;75081.50;6099154;23;20006;-88
2023/12/25 05:54:15;;;;;;;0.20;0.20;;;;;;;11.90;95.82;75076.13;6123011;23;19993;-88
2023/12/25 05:56:50;;;;;;;0.20;0.20;;;;;;;11.59;96.25;75034.09;6149465;23;20021;-87
2023/12/25 06:02:42;;;;;;;0.20;0.20;;;;;;;11.91;97.10;75077.31;6131152;23;20100;-88
2023/12/25 06:05:10;;;;;;;0.20;0.20;;;;;;;11.78;96.90;75056.22;6153694;23;20029;-87
2023/12/25 06:13:49;;;;;;;0.20;0.20;;;;;;;11.72;98.31;75051.81;6153163;23;20033;-86
2023/12/25 06:16:26;;;;;;;0.30;0.30;;;;;;;11.79;98.95;75060.19;6151425;23;20009;-88
2023/12/25 06:18:55;;;;;;;0.20;0.20;;;;;;;11.75;98.20;75055.38;6144031;23;20016;-87
2023/12/25 06:21:21;;;;;;;0.20;0.20;;;;;;;11.63;97.93;75038.28;6120404;23;20051;-87
2023/12/25 06:23:48;;;;;;;0.20;0.20;;;;;;;11.86;97.64;75065.78;6145500;23;20438;-87
2023/12/25 06:26:14;;;;;;;0.20;0.20;;;;;;;11.52;97.78;75031.88;6146299;23;20043;-86
2023/12/25 06:28:40;;;;;;;0.20;0.20;;;;;;;11.77;97.54;75060.53;6143828;23;20002;-86
2023/12/25 06:31:07;;;;;;;0.20;0.20;;;;;;;11.85;97.87;75070.16;6117177;23;20013;-85
2023/12/25 06:33:33;;;;;;;0.20;0.20;;;;;;;11.72;98.17;75055.19;6117723;23;20350;-87
2023/12/25 06:35:59;;;;;;;0.20;0.20;;;;;;;11.78;97.92;75056.81;6124469;23;20009;-89
2023/12/25 06:38:26;;;;;;;0.20;0.20;;;;;;;11.52;97.44;75029.09;6144012;23;20033;-86
2023/12/25 06:40:53;;;;;;;0.20;0.20;;;;;;;11.61;97.32;75038.66;6119211;23;20009;-87
2023/12/25 06:43:23;;;;;;;0.20;0.20;;;;;;;11.51;97.45;75025.13;6121525;23;20462;-88
2023/12/25 06:45:50;;;;;;;0.22;0.22;;;;;;;11.46;97.96;75024.69;6147446;23;20001;-86
2023/12/25 06:51:41;;;;;;;0.20;0.20;;;;;;;11.63;98.33;75043.81;6146609;23;20090;-87
2023/12/25 06:54:14;;;;;;;0.20;0.20;;;;;;;11.78;97.17;75061.75;6122168;23;20010;-88
2023/12/25 06:56:45;;;;;;;0.20;0.20;;;;;;;11.92;97.51;75075.72;6146927;23;20002;-87
2023/12/25 06:59:20;;;;;;;0.20;0.20;;;;;;;11.80;97.86;75064.13;6122072;23;20041;-87
2023/12/25 07:01:45;;;;;;;0.20;0.20;;;;;;;11.87;96.99;75069.16;6116518;23;20036;-87
2023/12/25 07:04:12;;;;;;;0.20;0.20;;;;;;;11.94;96.62;75074.78;6143899;23;20447;-86
2023/12/25 07:06:41;;;;;;;0.20;0.20;;;;;;;11.83;95.70;75062.22;6122725;23;20009;-87
2023/12/25 07:12:28;;;;;;;0.20;0.20;;;;;;;11.81;94.87;75068.09;6150000;23;20029;-87
2023/12/25 07:14:53;;;;;;;0.30;0.30;;;;;;;11.92;95.84;75075.72;6122485;23;20006;-85
2023/12/25 07:17:19;;;;;;;0.20;0.20;;;;;;;11.87;96.39;75071.94;6117112;23;20013;-86
2023/12/25 07:19:49;;;;;;;0.20;0.20;;;;;;;12.02;96.19;75084.94;6121567;23;20014;-86
2023/12/25 07:22:20;;;;;;;0.20;0.20;;;;;;;12.01;95.22;75083.72;6124176;23;20014;-87
2023/12/25 07:25:13;;;;;;;0.20;0.20;;;;;;;12.19;95.38;75104.06;6147648;23;20009;-87
2023/12/25 07:27:42;;;;;;;0.20;0.20;;;;;;;11.96;94.80;75077.75;6148500;23;20017;-87
2023/12/25 07:30:14;;;;;;;0.20;0.20;;;;;;;12.09;94.31;75097.63;6149170;23;20415;-87
2023/12/25 07:32:41;;;;;;;0.20;0.20;;;;;;;12.33;95.01;75126.34;6123061;23;20006;-87
2023/12/25 07:35:11;;;;;;;0.20;0.20;;;;;;;12.12;92.92;75098.47;6121130;23;20006;-86
2023/12/25 07:37:36;;;;;;;0.20;0.20;;;;;;;12.25;91.39;75116.78;6146551;23;20057;-86
2023/12/25 07:40:07;;;;;;;0.30;0.30;;;;;;;12.45;91.62;75134.56;6142741;23;20025;-87
2023/12/25 07:42:33;;;;;;;0.20;0.20;;;;;;;12.48;91.01;75140.94;6119835;23;20013;-86
2023/12/25 07:45:00;;;;;;;0.20;0.20;;;;;;;12.44;88.70;75133.97;6115443;23;20010;-88
2023/12/25 07:47:48;;;;;;;0.20;0.20;;;;;;;12.41;87.21;75135.94;6148810;23;20058;-87
2023/12/25 07:50:15;;;;;;;0.20;0.20;;;;;;;12.33;87.09;75121.41;6121488;23;20009;-87
2023/12/25 07:52:53;;;;;;;0.20;0.20;;;;;;;12.57;87.71;75149.53;6124225;23;20074;-88
2023/12/25 07:55:27;;;;;;;0.20;0.20;;;;;;;12.58;86.08;75150.13;6128186;23;20017;-88
2023/12/25 07:58:04;;;;;;;0.20;0.20;;;;;;;12.84;86.01;75183.41;6152939;23;19998;-87
2023/12/25 08:00:37;;;;;;;0.20;0.20;;;;;;;12.63;85.37;75161.66;6129641;23;20033;-87
2023/12/25 08:03:04;;;;;;;0.20;0.20;;;;;;;12.74;86.58;75165.91;6105117;23;20017;-85
2023/12/25 08:05:31;;;;;;;0.20;0.20;;;;;;;12.68;87.28;75167.63;6122812;23;20057;-86
2023/12/25 08:08:05;;;;;;;0.30;0.30;;;;;;;12.80;86.17;75176.44;6124806;23;20002;-88
2023/12/25 08:11:22;;;;;;;0.20;0.20;;;;;;;12.87;83.77;75184.22;6105306;23;20014;-88
2023/12/25 08:13:53;;;;;;;0.20;0.20;;;;;;;13.00;83.08;75205.34;6054011;23;20074;-88
2023/12/25 08:17:33;;;;;;;0.20;0.20;;;;;;;13.15;84.53;75222.06;6122634;23;20014;-88
2023/12/25 08:20:19;;;;;;;0.20;0.20;;;;;;;13.06;86.03;75206.97;6117902;23;20017;-87
2023/12/25 08:22:47;;;;;;;0.20;0.20;;;;;;;13.15;85.86;75216.50;6115879;23;20030;-87
2023/12/25 08:25:17;;;;;;;0.20;0.20;;;;;;;13.33;85.72;75238.09;6092069;23;20011;-87
2023/12/25 08:27:44;;;;;;;0.20;0.20;;;;;;;13.48;85.30;75256.06;6089114;23;19990;-86
2023/12/25 08:30:12;;;;;;;0.20;0.20;;;;;;;13.35;84.50;75246.03;6111820;23;20018;-86
2023/12/25 08:32:38;;;;;;;0.20;0.20;;;;;;;13.45;83.77;75257.41;6063090;23;20018;-86
2023/12/25 08:35:07;;;;;;;0.20;0.20;;;;;;;13.52;81.87;75263.00;6112015;23;20013;-86
2023/12/25 08:37:35;;;;;;;0.20;0.20;;;;;;;13.76;81.43;75293.94;6111457;23;20015;-86
2023/12/25 08:40:03;;;;;;;0.20;0.20;;;;;;;13.66;80.44;75279.19;6091646;23;20015;-86
2023/12/25 08:42:33;;;;;;;0.20;0.20;;;;;;;13.78;79.39;75293.53;6066243;23;20010;-87
2023/12/25 08:45:27;;;;;;;0.20;0.20;;;;;;;13.90;78.45;75305.13;6146409;23;19998;-87
2023/12/25 08:48:22;;;;;;;0.20;0.20;;;;;;;13.93;75.00;75305.34;6131882;23;20132;-87
2023/12/25 08:50:48;;;;;;;0.20;0.20;;;;;;;14.05;75.50;75319.72;6113664;23;20018;-85
2023/12/25 08:53:17;;;;;;;0.20;0.20;;;;;;;14.18;76.45;75334.69;6115199;23;20732;-84
2023/12/25 08:55:47;;;;;;;0.20;0.20;;;;;;;13.93;77.14;75308.72;6115459;23;20013;-85
2023/12/25 08:58:14;;;;;;;0.20;0.20;;;;;;;13.99;78.55;75315.91;6086842;23;20021;-84
2023/12/25 09:00:39;;;;;;;0.20;0.20;;;;;;;13.65;77.60;75275.22;6087048;23;20006;-78
2023/12/25 09:03:14;;;;;;;0.20;0.20;;;;;;;13.92;76.85;75306.94;6091235;23;20070;-86
2023/12/25 09:05:43;;;;;;;0.30;0.30;;;;;;;14.39;79.92;75357.06;6098828;23;20006;-88
2023/12/25 09:09:13;;;;;;;0.20;0.20;;;;;;;15.17;75.77;75457.06;6123662;23;20022;-87
2023/12/25 09:12:43;;;;;;;0.20;0.20;;;;;;;15.80;75.44;75534.19;6084008;23;19999;-90
2023/12/25 09:19:05;;;;;;;0.20;0.20;;;;;;;15.49;77.30;75494.22;6233004;22;20061;-87
2023/12/25 09:21:38;;;;;;;0.20;0.20;;;;;;;16.53;72.42;75614.38;6208422;23;20146;-87
2023/12/25 09:24:25;;;;;;;0.20;0.20;;;;;;;17.05;73.37;75675.59;6215440;23;20016;-87
2023/12/25 09:27:00;;;;;;;0.20;0.20;;;;;;;17.38;71.73;75713.97;6220970;23;20019;-87
2023/12/25 09:35:21;;;;;;;0.20;0.20;;;;;;;16.17;66.03;75571.78;6149250;23;20029;-86
2023/12/25 09:38:00;;;;;;;0.20;0.20;;;;;;;16.13;65.68;75561.41;6149624;23;20006;-85
2023/12/25 09:40:40;;;;;;;0.20;0.20;;;;;;;15.76;66.38;75523.22;6150402;23;20000;-85
2023/12/25 09:43:11;;;;;;;0.20;0.20;;;;;;;15.64;67.02;75507.25;6147014;23;20010;-85
2023/12/25 09:45:53;;;;;;;0.20;0.20;;;;;;;15.56;64.71;75494.88;6125430;23;20065;-85
2023/12/25 09:48:29;;;;;;;0.20;0.20;;;;;;;15.43;65.13;75482.06;6148979;23;20045;-84
2023/12/25 09:51:24;;;;;;;0.20;0.20;;;;;;;15.44;64.71;75483.84;6149427;23;20021;-86
2023/12/25 09:54:01;;;;;;;0.20;0.20;;;;;;;15.35;64.05;75475.28;6090236;23;20011;-84
2023/12/25 09:56:35;;;;;;;0.20;0.20;;;;;;;15.37;66.26;75477.66;6139885;23;20016;-84
2023/12/25 09:59:06;;;;;;;0.20;0.20;;;;;;;15.64;65.36;75504.47;6143319;23;20010;-84
2023/12/25 10:01:40;;;;;;;0.20;0.20;;;;;;;15.16;65.00;75456.47;6143496;23;20014;-86
2023/12/25 10:04:14;;;;;;;0.20;0.20;;;;;;;15.27;67.46;75471.84;6149986;23;19981;-85
2023/12/25 10:06:44;;;;;;;0.20;0.20;;;;;;;15.49;65.76;75492.03;6149321;23;20009;-83
2023/12/25 10:12:52;;;;;;;0.20;0.20;;;;;;;15.16;66.78;75453.69;6152845;23;20004;-85
2023/12/25 10:15:23;;;;;;;0.20;0.20;;;;;;;15.22;67.37;75462.47;6126098;23;20006;-84
2023/12/25 10:20:38;;;;;;;0.20;0.20;;;;;;;15.24;66.87;75462.09;6149149;23;20070;-85
2023/12/25 10:23:12;;;;;;;0.20;0.20;;;;;;;15.24;67.98;75464.88;6177093;23;20024;-85
2023/12/25 10:25:44;;;;;;;0.20;0.20;;;;;;;15.16;66.54;75453.69;6173792;23;20005;-85
2023/12/25 10:28:12;;;;;;;0.20;0.20;;;;;;;15.52;66.97;75501.22;6147690;23;20032;-85
2023/12/25 10:30:42;;;;;;;0.20;0.20;;;;;;;15.05;66.97;75434.34;6146678;23;20012;-85
2023/12/25 10:33:15;;;;;;;0.20;0.20;;;;;;;15.18;67.67;75458.28;6146978;23;20009;-84
2023/12/25 10:35:42;;;;;;;0.20;0.20;;;;;;;15.14;67.82;75448.50;6172859;23;20013;-85
2023/12/25 10:38:20;;;;;;;0.20;0.20;;;;;;;15.34;68.18;75471.28;6178943;23;20049;-87
2023/12/25 10:41:29;;;;;;;0.30;0.30;;;;;;;15.64;67.99;75510.03;6152979;23;20029;-85
2023/12/25 10:44:06;;;;;;;0.20;0.20;;;;;;;15.39;67.04;75480.66;6151643;23;20013;-85
2023/12/25 10:46:35;;;;;;;0.20;0.20;;;;;;;15.51;65.93;75491.66;6121282;23;20085;-86
2023/12/25 10:49:05;;;;;;;0.20;0.20;;;;;;;15.42;66.21;75480.88;6178295;23;20013;-85
2023/12/25 10:51:45;;;;;;;0.20;0.20;;;;;;;15.30;65.61;75472.66;6152291;23;20077;-85
2023/12/25 10:54:16;;;;;;;0.20;0.20;;;;;;;15.30;65.82;75469.28;6152317;23;20005;-85
2023/12/25 10:56:49;;;;;;;0.20;0.20;;;;;;;15.31;66.18;75470.47;6130029;23;19993;-86
2023/12/25 10:59:22;;;;;;;;;;;;;;;15.55;66.76;75499.22;6154092;23;20041;-85
2023/12/25 11:01:56;;;;;;;0.20;0.20;;;;;;;15.29;67.29;75470.88;6151351;23;19912;-85
2023/12/25 11:04:25;;;;;;;0.20;0.20;;;;;;;15.23;68.70;75460.88;6156394;23;20025;-85
2023/12/25 11:06:59;;;;;;;0.20;0.20;;;;;;;15.26;67.21;75464.47;6107701;23;20044;-86
2023/12/25 11:09:25;;;;;;;0.20;0.20;;;;;;;15.47;65.88;75489.66;6151710;23;20036;-84
2023/12/25 11:11:54;;;;;;;0.20;0.20;;;;;;;15.32;66.15;75475.06;6151846;23;20017;-85
2023/12/25 11:14:28;;;;;;;0.20;0.20;;;;;;;15.35;66.03;75475.88;6149562;23;20032;-86
2023/12/25 11:16:56;;;;;;;0.20;0.20;;;;;;;15.09;67.25;75450.88;6152577;23;20025;-85
2023/12/25 11:19:24;;;;;;;0.20;0.20;;;;;;;15.41;68.89;75483.06;6153239;23;20069;-84
2023/12/25 11:22:18;;;;;;;0.20;0.20;;;;;;;15.53;66.79;75494.06;6149084;23;20008;-85
2023/12/25 11:24:47;;;;;;;0.20;0.20;;;;;;;15.13;66.88;75452.88;6171397;23;20012;-85
2023/12/25 11:27:18;;;;;;;0.20;0.20;;;;;;;15.32;67.30;75468.88;6153031;23;20010;-86
2023/12/25 11:29:49;;;;;;;0.20;0.20;;;;;;;15.11;67.00;75453.25;6175567;23;20005;-86
2023/12/25 11:32:17;;;;;;;0.20;0.20;;;;;;;15.49;67.49;75492.03;6151145;23;20001;-85
2023/12/25 11:34:49;;;;;;;0.20;0.20;;;;;;;15.35;67.64;75475.28;6175817;23;20006;-85
2023/12/25 11:37:28;;;;;;;0.20;0.20;;;;;;;15.14;68.05;75454.09;6147129;23;20037;-85
2023/12/25 11:40:07;;;;;;;0.20;0.20;;;;;;;15.22;67.55;75460.28;6175037;23;20009;-83
2023/12/25 11:42:41;;;;;;;0.20;0.20;;;;;;;15.50;69.66;75493.25;6173323;23;20007;-84
2023/12/25 11:45:14;;;;;;;0.20;0.20;;;;;;;15.24;68.50;75467.66;6155616;23;20002;-85
2023/12/25 11:48:02;;;;;;;0.20;0.20;;;;;;;15.46;69.42;75485.66;6154865;23;20006;-84
2023/12/25 11:50:58;;;;;;;0.20;0.20;;;;;;;15.37;69.25;75477.66;6181756;23;20005;-86
2023/12/25 11:53:53;;;;;;;0.20;0.20;;;;;;;15.33;68.23;75472.84;6154076;23;20009;-88
2023/12/25 11:57:02;;;;;;;0.20;0.20;;;;;;;15.02;70.23;75436.31;6181064;23;19994;-88
2023/12/25 11:59:47;;;;;;;0.20;0.20;;;;;;;15.17;68.97;75454.88;6142611;23;20013;-87
2023/12/25 12:02:54;;;;;;;0.20;0.20;;;;;;;15.15;70.20;75446.31;6183638;23;19998;-88
2023/12/25 12:16:16;;;;;;;0.20;0.20;;;;;;;15.33;68.45;75472.84;6198697;23;20012;-88
2023/12/25 12:22:31;;;;;;;0.20;0.20;;;;;;;14.98;69.16;75437.09;6213139;23;20063;-88
2023/12/25 12:25:21;;;;;;;0.20;0.20;;;;;;;14.66;70.77;75397.16;6212705;23;20008;-88
2023/12/25 12:28:11;;;;;;;0.20;0.20;;;;;;;14.98;69.93;75432.13;6163340;23;20059;-88
2023/12/25 12:30:50;;;;;;;0.20;0.20;;;;;;;14.93;71.57;75426.13;6186244;23;19989;-88
2023/12/25 12:33:22;;;;;;;0.20;0.20;;;;;;;14.76;72.61;75405.78;6187903;23;20069;-88
2023/12/25 12:36:41;;;;;;;0.20;0.20;;;;;;;15.07;74.47;75442.31;6210911;23;20012;-88
2023/12/25 12:39:30;;;;;;;0.28;0.28;;;;;;;14.83;76.93;75416.94;6208637;23;20001;-88
2023/12/25 12:42:27;;;;;;;0.20;0.20;;;;;;;14.90;79.38;75425.91;6212662;23;20003;-88
2023/12/25 12:45:50;;;;;;;0.20;0.20;;;;;;;15.00;78.75;75436.69;6209279;23;19993;-88
2023/12/25 12:48:26;;;;;;;0.20;0.20;;;;;;;14.57;79.56;75383.59;6209634;23;20005;-88
2023/12/25 12:51:01;;;;;;;0.20;0.20;;;;;;;14.99;78.54;75430.53;6182928;23;20001;-88
2023/12/25 12:54:04;;;;;;;0.20;0.20;;;;;;;14.68;78.34;75400.16;6186841;23;20048;-88
2023/12/25 12:56:38;;;;;;;0.25;0.25;;;;;;;14.63;77.98;75391.38;6187225;23;20001;-89
2023/12/25 12:59:21;;;;;;;0.20;0.20;;;;;;;14.70;79.50;75398.56;6203006;23;20053;-87
2023/12/25 13:02:10;;;;;;;0.20;0.20;;;;;;;14.71;80.65;75403.16;6186069;23;20032;-89
2023/12/25 13:04:55;;;;;;;0.30;0.30;;;;;;;14.52;82.41;75378.22;6204737;23;20013;-87
2023/12/25 13:14:23;;;;;;;0.20;0.20;;;;;;;14.87;82.33;75418.94;6125827;23;20025;-89
2023/12/25 13:17:54;;;;;;;0.20;0.20;;;;;;;14.82;82.69;75413.56;6132710;23;20002;-89
2023/12/25 13:35:11;;;;;;;;;;;;;;;14.72;85.71;75407.13;6155371;23;20005;-89
2023/12/25 13:41:36;;;;;;;0.20;0.20;;;;;;;14.23;86.20;75340.69;6151872;23;20056;-88
2023/12/25 13:44:17;;;;;;;0.20;0.20;;;;;;;14.37;81.70;75365.78;6103499;23;20067;-88
2023/12/25 13:46:45;;;;;;;0.20;0.20;;;;;;;14.51;79.33;75382.56;6148855;23;19993;-88
2023/12/25 13:49:23;;;;;;;0.20;0.20;;;;;;;14.69;82.33;75400.75;6149880;23;20000;-88
2023/12/25 13:59:03;;;;;;;0.20;0.20;;;;;;;14.54;83.92;75377.22;6154815;23;20005;-89
2023/12/25 14:02:33;;;;;;;0.28;0.28;;;;;;;14.61;81.86;75386.22;6093115;23;20018;-89
2023/12/25 14:05:23;;;;;;;0.20;0.20;;;;;;;14.40;85.31;75361.03;6090666;23;20011;-89
2023/12/25 14:08:23;;;;;;;0.28;0.28;;;;;;;14.08;82.13;75326.69;6034380;23;20878;-88
2023/12/25 14:10:56;;;;;;;0.20;0.20;;;;;;;14.08;81.72;75326.09;6087479;23;20050;-87
2023/12/25 14:13:35;;;;;;;0.20;0.20;;;;;;;14.25;82.58;75348.63;6089338;23;20010;-88
2023/12/25 14:16:05;;;;;;;0.20;0.20;;;;;;;14.35;83.82;75360.59;6091218;23;20014;-87
2023/12/25 14:18:50;;;;;;;0.20;0.20;;;;;;;14.00;84.56;75317.09;6066914;23;20606;-87
2023/12/25 14:21:17;;;;;;;0.20;0.20;;;;;;;14.28;87.12;75349.44;6090144;23;19979;-86
2023/12/25 14:23:47;;;;;;;0.20;0.20;;;;;;;13.97;90.07;75313.53;6090359;23;20017;-87
2023/12/25 14:26:18;;;;;;;0.20;0.20;;;;;;;13.85;93.75;75299.16;6123791;23;20010;-87